logo
Search for airport 
image banner adimage banner adimage banner ad
image banner ad

HKBC - Black Marlin

Located in Msambweni, Kenya

ICAO - , IATA -

Data provided by Airmate  

General information

Coordinates: S4°30'8" E39°28'3"
Elevation is 15 feet MSL.
Magnetic variation is -1° East
View others Airports in Coast Province

Operational data

Special qualification required
Current time UTC:
Current local time:
Weather at : HKMO - Mombasa Moi Intl ( 55 km )
METAR: HKMO 180800Z 20014KT 9999 SCT025 BKN080 30/24 Q1013 NOSIG
TAF: TAF HKMO 180500Z 1806/1912 21010KT 9999 FEW020 SCT080 TEMPO 1809/1812 -SHRA FEW023CB SCT024 BKN080 BECMG 1815/1818 21005KT NSW FEW022 TEMPO 1900/1903 -RA SCT018 BKN080
View NOTAMs / SUP AIP / TFR affecting this airport [VIEW]
Communications frequencies: [VIEW]

Runways:

RWY identifierQFULength (ft)Width (ft)SurfaceLDA (ft)
0600UNK
2400UNK
1200UNK
3000UNK

Airport contact information

Address: Msambweni Kenya

Satellite view of HKBC